createdAt,value
2018-12-04T00:00:16.928Z,1002.63
2018-12-04T00:01:16.924Z,1002.66
2018-12-04T00:02:16.916Z,1002.73
2018-12-04T00:03:16.907Z,1002.74
2018-12-04T00:04:16.900Z,1002.79
2018-12-04T00:05:16.938Z,1002.79
2018-12-04T00:06:16.880Z,1002.88
2018-12-04T00:07:16.872Z,1002.96
2018-12-04T00:08:16.864Z,1002.96
2018-12-04T00:09:16.861Z,1003.01
2018-12-04T00:10:16.857Z,1003.00
2018-12-04T00:11:16.845Z,1003.11
2018-12-04T00:12:16.836Z,1003.18
2018-12-04T00:13:16.824Z,1003.22
2018-12-04T00:14:16.816Z,1003.26
2018-12-04T00:15:16.812Z,1003.27
2018-12-04T00:16:16.805Z,1003.38
2018-12-04T00:17:16.792Z,1003.40
2018-12-04T00:18:16.784Z,1003.49
2018-12-04T00:19:16.778Z,1003.46
2018-12-04T00:20:16.767Z,1003.51
2018-12-04T00:21:16.765Z,1003.57
2018-12-04T00:22:16.759Z,1003.58
2018-12-04T00:23:16.747Z,1003.61
2018-12-04T00:24:16.739Z,1003.61
2018-12-04T00:25:16.727Z,1003.65
2018-12-04T00:26:16.719Z,1003.69
2018-12-04T00:27:16.711Z,1003.70
2018-12-04T00:28:16.706Z,1003.76
2018-12-04T00:29:16.699Z,1003.80
2018-12-04T00:30:16.691Z,1003.81
2018-12-04T00:31:16.677Z,1003.86
2018-12-04T00:32:16.670Z,1003.89
2018-12-04T00:33:16.667Z,1003.91
2018-12-04T00:34:16.659Z,1003.97
2018-12-04T00:35:16.650Z,1004.02
2018-12-04T00:36:16.642Z,1004.01
2018-12-04T00:37:16.629Z,1004.07
2018-12-04T00:38:16.620Z,1004.11
2018-12-04T00:39:16.612Z,1004.11
2018-12-04T00:40:16.605Z,1004.12
2018-12-04T00:41:16.602Z,1004.20
2018-12-04T00:42:16.593Z,1004.28
2018-12-04T00:43:16.585Z,1004.32
2018-12-04T00:44:16.576Z,1004.30
2018-12-04T00:45:16.564Z,1004.31
2018-12-04T00:46:16.556Z,1004.28
2018-12-04T00:47:16.551Z,1004.39
2018-12-04T00:48:16.543Z,1004.43
2018-12-04T00:49:16.532Z,1004.39
2018-12-04T00:50:16.523Z,1004.45
2018-12-04T00:51:16.515Z,1004.52
2018-12-04T00:52:16.508Z,1004.57
2018-12-04T00:53:16.503Z,1004.61
2018-12-04T00:54:16.497Z,1004.56
2018-12-04T00:55:16.487Z,1004.58
2018-12-04T00:56:16.479Z,1004.64
2018-12-04T00:57:16.468Z,1004.61
2018-12-04T00:58:16.459Z,1004.66
2018-12-04T00:59:16.450Z,1004.63
2018-12-04T01:00:16.443Z,1004.69
2018-12-04T01:01:16.442Z,1004.77
2018-12-04T01:02:16.430Z,1004.76
2018-12-04T01:03:16.418Z,1004.87
2018-12-04T01:04:16.410Z,1004.91
2018-12-04T01:05:16.406Z,1004.91
2018-12-04T01:06:16.401Z,1004.90
2018-12-04T01:07:16.391Z,1004.93
2018-12-04T01:08:16.383Z,1004.97
2018-12-04T01:09:16.370Z,1004.91
2018-12-04T01:10:16.362Z,1004.95
2018-12-04T01:11:16.353Z,1004.99
2018-12-04T01:12:16.345Z,1004.95
2018-12-04T01:13:16.342Z,1005.01
2018-12-04T01:14:16.336Z,1005.05
2018-12-04T01:15:16.324Z,1005.09
2018-12-04T01:16:16.318Z,1005.15
2018-12-04T01:17:16.305Z,1005.16
2018-12-04T01:18:16.298Z,1005.12
2018-12-04T01:19:16.294Z,1005.11
2018-12-04T01:20:16.286Z,1005.10
2018-12-04T01:21:16.272Z,1005.12
2018-12-04T01:22:16.269Z,1005.16
2018-12-04T01:23:16.256Z,1005.20
2018-12-04T01:24:16.250Z,1005.25
2018-12-04T01:25:16.247Z,1005.28
2018-12-04T01:26:16.238Z,1005.35
2018-12-04T01:27:16.232Z,1005.39
2018-12-04T01:28:16.221Z,1005.45
2018-12-04T01:29:16.209Z,1005.52
2018-12-04T01:30:16.200Z,1005.49
2018-12-04T01:31:16.191Z,1005.49
2018-12-04T01:32:16.184Z,1005.43
2018-12-04T01:33:16.180Z,1005.52
2018-12-04T01:34:16.173Z,1005.51
2018-12-04T01:35:16.159Z,1005.52
2018-12-04T01:36:16.152Z,1005.54
2018-12-04T01:37:16.147Z,1005.54
2018-12-04T01:38:16.143Z,1005.55
2018-12-04T01:39:16.131Z,1005.59
2018-12-04T01:40:16.127Z,1005.59
2018-12-04T01:41:16.112Z,1005.60
2018-12-04T01:42:16.105Z,1005.67
2018-12-04T01:43:16.096Z,1005.74
2018-12-04T01:44:16.088Z,1005.67
2018-12-04T01:45:16.083Z,1005.73
2018-12-04T01:46:16.076Z,1005.74
2018-12-04T01:47:16.072Z,1005.79
2018-12-04T01:48:16.059Z,1005.76
2018-12-04T01:49:16.048Z,1005.80
2018-12-04T01:50:16.039Z,1005.79
2018-12-04T01:51:16.035Z,1005.86
2018-12-04T01:52:16.030Z,1005.93
2018-12-04T01:53:16.014Z,1005.96
2018-12-04T01:54:16.006Z,1006.02
2018-12-04T01:55:15.998Z,1006.01
2018-12-04T01:56:15.990Z,1006.05
2018-12-04T01:57:15.992Z,1006.07
2018-12-04T01:58:15.980Z,1006.14
2018-12-04T01:59:15.970Z,1006.22
2018-12-04T02:00:15.962Z,1006.19
2018-12-04T02:01:15.952Z,1006.26
2018-12-04T02:02:15.942Z,1006.26
2018-12-04T02:03:15.935Z,1006.28
2018-12-04T02:04:15.926Z,1006.27
2018-12-04T02:05:15.921Z,1006.28
2018-12-04T02:06:15.917Z,1006.26
2018-12-04T02:07:15.901Z,1006.33
2018-12-04T02:08:15.893Z,1006.28
2018-12-04T02:09:15.891Z,1006.35
2018-12-04T02:10:15.883Z,1006.35
2018-12-04T02:11:15.872Z,1006.34
2018-12-04T02:12:15.865Z,1006.39
2018-12-04T02:13:15.854Z,1006.36
2018-12-04T02:14:15.845Z,1006.42
2018-12-04T02:15:15.836Z,1006.34
2018-12-04T02:16:15.827Z,1006.44
2018-12-04T02:17:15.825Z,1006.41
2018-12-04T02:18:15.816Z,1006.48
2018-12-04T02:19:15.808Z,1006.47
2018-12-04T02:20:15.801Z,1006.53
2018-12-04T02:21:15.792Z,1006.55
2018-12-04T02:22:15.779Z,1006.58
2018-12-04T02:23:15.776Z,1006.63
2018-12-04T02:24:15.768Z,1006.70
2018-12-04T02:25:15.754Z,1006.73
2018-12-04T02:26:15.749Z,1006.73
2018-12-04T02:27:15.738Z,1006.76
2018-12-04T02:28:15.729Z,1006.78
2018-12-04T02:29:15.726Z,1006.84
2018-12-04T02:30:15.718Z,1006.82
2018-12-04T02:31:15.711Z,1006.85
2018-12-04T02:32:15.701Z,1006.85
2018-12-04T02:33:15.689Z,1006.86
2018-12-04T02:34:15.682Z,1006.84
2018-12-04T02:35:15.672Z,1006.87
2018-12-04T02:36:15.665Z,1006.93
2018-12-04T02:37:15.662Z,1006.89
2018-12-04T02:38:15.652Z,1006.89
2018-12-04T02:39:15.640Z,1006.88
2018-12-04T02:40:15.636Z,1006.88
2018-12-04T02:41:15.637Z,1006.85
2018-12-04T02:42:15.622Z,1006.84
2018-12-04T02:43:15.610Z,1006.89
2018-12-04T02:44:15.603Z,1006.91
2018-12-04T02:45:15.591Z,1006.96
2018-12-04T02:46:15.607Z,1006.93
2018-12-04T02:47:15.576Z,1006.92
2018-12-04T02:48:15.568Z,1006.92
2018-12-04T02:49:15.563Z,1006.96
2018-12-04T02:50:15.555Z,1006.95
2018-12-04T02:51:15.548Z,1006.96
2018-12-04T02:52:15.540Z,1007.03
2018-12-04T02:53:15.526Z,1007.02
2018-12-04T02:54:15.518Z,1007.05
2018-12-04T02:55:15.515Z,1007.01
2018-12-04T02:56:15.506Z,1007.08
2018-12-04T02:57:15.494Z,1007.09
2018-12-04T02:58:15.487Z,1007.14
2018-12-04T02:59:15.479Z,1007.16
2018-12-04T03:00:15.469Z,1007.24
2018-12-04T03:01:15.467Z,1007.27
2018-12-04T03:02:15.457Z,1007.30
2018-12-04T03:03:15.448Z,1007.34
2018-12-04T03:04:15.440Z,1007.32
2018-12-04T03:05:15.437Z,1007.31
2018-12-04T03:06:15.424Z,1007.35
2018-12-04T03:07:15.413Z,1007.35
2018-12-04T03:08:15.405Z,1007.31
2018-12-04T03:09:15.403Z,1007.39
2018-12-04T03:10:15.393Z,1007.39
2018-12-04T03:11:15.378Z,1007.45
2018-12-04T03:12:15.375Z,1007.36
2018-12-04T03:13:15.367Z,1007.38
2018-12-04T03:14:15.360Z,1007.44
2018-12-04T03:15:15.351Z,1007.49
2018-12-04T03:16:15.343Z,1007.52
2018-12-04T03:17:15.333Z,1007.53
2018-12-04T03:18:15.326Z,1007.52
2018-12-04T03:19:15.313Z,1007.55
2018-12-04T03:20:15.306Z,1007.60
2018-12-04T03:21:15.304Z,1007.61
2018-12-04T03:22:15.295Z,1007.68
2018-12-04T03:23:15.287Z,1007.67
2018-12-04T03:24:15.279Z,1007.69
2018-12-04T03:25:15.267Z,1007.68
2018-12-04T03:26:15.257Z,1007.71
2018-12-04T03:27:15.253Z,1007.70
2018-12-04T03:28:15.245Z,1007.71
2018-12-04T03:29:15.231Z,1007.80
2018-12-04T03:30:15.226Z,1007.77
2018-12-04T03:31:15.217Z,1007.80
2018-12-04T03:32:15.208Z,1007.79
2018-12-04T03:33:15.209Z,1007.75
2018-12-04T03:34:15.197Z,1007.79
2018-12-04T03:35:15.187Z,1007.79
2018-12-04T03:36:15.180Z,1007.83
2018-12-04T03:37:15.169Z,1007.85
2018-12-04T03:38:15.159Z,1007.89
2018-12-04T03:39:15.150Z,1007.88
2018-12-04T03:40:15.147Z,1007.88
2018-12-04T03:41:15.139Z,1007.90
2018-12-04T03:42:15.131Z,1007.90
2018-12-04T03:43:15.119Z,1007.88
2018-12-04T03:44:15.110Z,1007.88
2018-12-04T03:45:15.105Z,1007.87
2018-12-04T03:46:15.098Z,1007.88
2018-12-04T03:47:15.087Z,1007.94
2018-12-04T03:48:15.079Z,1007.98
2018-12-04T03:49:15.072Z,1007.96
2018-12-04T03:50:15.063Z,1008.01
2018-12-04T03:51:15.050Z,1008.03
2018-12-04T03:52:15.043Z,1008.07
2018-12-04T03:53:15.044Z,1008.05
2018-12-04T03:54:15.031Z,1008.06
2018-12-04T03:55:15.021Z,1008.05
2018-12-04T03:56:15.013Z,1008.08
2018-12-04T03:57:15.008Z,1008.12
2018-12-04T03:58:14.993Z,1008.13
2018-12-04T03:59:14.989Z,1008.21
2018-12-04T04:00:14.979Z,1008.21
2018-12-04T04:01:14.967Z,1008.17
2018-12-04T04:02:14.959Z,1008.14
2018-12-04T04:03:14.951Z,1008.21
2018-12-04T04:04:14.942Z,1008.25
2018-12-04T04:05:14.941Z,1008.27
2018-12-04T04:06:14.931Z,1008.27
2018-12-04T04:07:14.928Z,1008.28
2018-12-04T04:08:14.915Z,1008.30
2018-12-04T04:09:14.901Z,1008.29
2018-12-04T04:10:14.893Z,1008.31
2018-12-04T04:11:14.883Z,1008.34
2018-12-04T04:12:14.879Z,1008.34
2018-12-04T04:13:14.871Z,1008.39
2018-12-04T04:14:14.863Z,1008.43
2018-12-04T04:15:14.850Z,1008.45
2018-12-04T04:16:14.842Z,1008.51
2018-12-04T04:17:14.839Z,1008.48
2018-12-04T04:18:14.833Z,1008.52
2018-12-04T04:19:14.822Z,1008.51
2018-12-04T04:20:14.815Z,1008.56
2018-12-04T04:21:14.800Z,1008.51
2018-12-04T04:22:14.792Z,1008.52
2018-12-04T04:23:14.784Z,1008.57
2018-12-04T04:24:14.775Z,1008.61
2018-12-04T04:25:14.772Z,1008.58
2018-12-04T04:26:14.791Z,1008.60
2018-12-04T04:27:14.762Z,1008.64
2018-12-04T04:28:14.750Z,1008.64
2018-12-04T04:29:14.739Z,1008.69
2018-12-04T04:30:14.726Z,1008.65
2018-12-04T04:31:14.726Z,1008.76
2018-12-04T04:32:14.713Z,1008.75
2018-12-04T04:33:14.701Z,1008.80
2018-12-04T04:34:14.692Z,1008.79
2018-12-04T04:35:14.684Z,1008.91
2018-12-04T04:36:14.675Z,1008.98
2018-12-04T04:37:14.673Z,1009.02
2018-12-04T04:38:14.664Z,1009.05
2018-12-04T04:39:14.656Z,1009.05
2018-12-04T04:40:14.650Z,1009.08
2018-12-04T04:41:14.635Z,1009.06
2018-12-04T04:42:14.625Z,1009.05
2018-12-04T04:43:14.616Z,1009.09
2018-12-04T04:44:14.608Z,1009.07
2018-12-04T04:45:14.606Z,1009.06
2018-12-04T04:46:14.745Z,1009.07
2018-12-04T04:47:14.585Z,1009.08
2018-12-04T04:48:14.575Z,1009.17
2018-12-04T04:49:14.572Z,1009.12
2018-12-04T04:50:14.564Z,1009.17
2018-12-04T04:51:14.554Z,1009.27
2018-12-04T04:52:14.546Z,1009.27
2018-12-04T04:53:14.539Z,1009.27
2018-12-04T04:54:14.524Z,1009.30
2018-12-04T04:55:14.518Z,1009.31
2018-12-04T04:56:14.509Z,1009.30
2018-12-04T04:57:14.503Z,1009.32
2018-12-04T04:58:14.494Z,1009.33
2018-12-04T04:59:14.528Z,1009.29
2018-12-04T05:00:14.481Z,1009.30
2018-12-04T05:01:14.466Z,1009.26
2018-12-04T05:02:14.456Z,1009.24
2018-12-04T05:03:14.453Z,1009.29
2018-12-04T05:04:14.444Z,1009.30
2018-12-04T05:05:14.431Z,1009.30
2018-12-04T05:06:14.423Z,1009.34
2018-12-04T05:07:14.421Z,1009.39
2018-12-04T05:08:14.407Z,1009.43
2018-12-04T05:09:14.401Z,1009.43
2018-12-04T05:10:14.396Z,1009.48
2018-12-04T05:11:14.383Z,1009.55
2018-12-04T05:12:14.378Z,1009.53
2018-12-04T05:13:14.366Z,1009.57
2018-12-04T05:14:14.354Z,1009.64
2018-12-04T05:15:14.344Z,1009.65
2018-12-04T05:16:14.336Z,1009.69
2018-12-04T05:17:14.333Z,1009.71
2018-12-04T05:18:14.329Z,1009.74
2018-12-04T05:19:14.310Z,1009.69
2018-12-04T05:20:14.303Z,1009.73
2018-12-04T05:21:14.298Z,1009.71
2018-12-04T05:22:14.291Z,1009.72
2018-12-04T05:23:14.284Z,1009.77
2018-12-04T05:24:14.271Z,1009.82
2018-12-04T05:25:14.259Z,1009.81
2018-12-04T05:26:14.250Z,1009.82
2018-12-04T05:27:14.241Z,1009.84
2018-12-04T05:28:14.232Z,1009.83
2018-12-04T05:29:14.228Z,1009.86
2018-12-04T05:30:14.241Z,1009.90
2018-12-04T05:31:14.212Z,1009.88
2018-12-04T05:32:14.204Z,1009.89
2018-12-04T05:33:14.192Z,1009.94
2018-12-04T05:34:14.182Z,1009.98
2018-12-04T05:35:14.182Z,1010.00
2018-12-04T05:36:14.169Z,1010.01
2018-12-04T05:37:14.155Z,1009.99
2018-12-04T05:38:14.147Z,1010.05
2018-12-04T05:39:14.137Z,1010.12
2018-12-04T05:40:14.129Z,1010.12
2018-12-04T05:41:14.129Z,1010.11
2018-12-04T05:42:14.116Z,1010.12
2018-12-04T05:43:14.108Z,1010.18
2018-12-04T05:44:14.099Z,1010.19
2018-12-04T05:45:14.086Z,1010.26
2018-12-04T05:46:14.078Z,1010.19
2018-12-04T05:47:14.069Z,1010.22
2018-12-04T05:48:14.061Z,1010.27
2018-12-04T05:49:14.057Z,1010.30
2018-12-04T05:50:14.049Z,1010.29
2018-12-04T05:51:14.035Z,1010.33
2018-12-04T05:52:14.026Z,1010.31
2018-12-04T05:53:14.023Z,1010.29
2018-12-04T05:54:14.023Z,1010.30
2018-12-04T05:55:14.005Z,1010.38
2018-12-04T05:56:13.995Z,1010.33
2018-12-04T05:57:13.983Z,1010.37
2018-12-04T05:58:13.973Z,1010.40
2018-12-04T05:59:13.971Z,1010.41
2018-12-04T06:00:13.958Z,1010.37
2018-12-04T06:01:13.954Z,1010.46
2018-12-04T06:02:13.945Z,1010.47
2018-12-04T06:03:13.934Z,1010.51
2018-12-04T06:04:13.926Z,1010.51
2018-12-04T06:05:13.916Z,1010.54
2018-12-04T06:06:13.906Z,1010.52
2018-12-04T06:07:13.899Z,1010.57
2018-12-04T06:08:13.891Z,1010.58
2018-12-04T06:09:13.880Z,1010.62
2018-12-04T06:10:13.870Z,1010.60
2018-12-04T06:11:13.861Z,1010.65
2018-12-04T06:12:13.852Z,1010.64
2018-12-04T06:13:13.849Z,1010.66
2018-12-04T06:14:13.850Z,1010.72
2018-12-04T06:15:13.831Z,1010.75
2018-12-04T06:16:13.823Z,1010.79
2018-12-04T06:17:13.810Z,1010.77
2018-12-04T06:18:13.801Z,1010.81
2018-12-04T06:19:13.792Z,1010.94
2018-12-04T06:20:13.783Z,1010.93
2018-12-04T06:21:13.779Z,1011.01
2018-12-04T06:22:13.772Z,1011.02
2018-12-04T06:23:13.757Z,1011.03
2018-12-04T06:24:13.750Z,1011.13
2018-12-04T06:25:13.756Z,1011.05
2018-12-04T06:26:13.741Z,1011.16
2018-12-04T06:27:13.728Z,1011.19
2018-12-04T06:28:13.719Z,1011.23
2018-12-04T06:29:13.705Z,1011.24
2018-12-04T06:30:13.698Z,1011.19
2018-12-04T06:31:13.688Z,1011.23
2018-12-04T06:32:13.679Z,1011.23
2018-12-04T06:33:13.676Z,1011.27
2018-12-04T06:34:13.666Z,1011.29
2018-12-04T06:35:13.659Z,1011.27
2018-12-04T06:36:13.648Z,1011.32
2018-12-04T06:37:13.635Z,1011.34
2018-12-04T06:38:13.628Z,1011.40
2018-12-04T06:39:13.626Z,1011.46
2018-12-04T06:40:13.617Z,1011.54
2018-12-04T06:41:13.601Z,1011.53
2018-12-04T06:42:13.591Z,1011.55
2018-12-04T06:43:13.582Z,1011.56
2018-12-04T06:44:13.576Z,1011.56
2018-12-04T06:45:13.572Z,1011.63
2018-12-04T06:46:13.563Z,1011.67
2018-12-04T06:47:13.556Z,1011.64
2018-12-04T06:48:13.545Z,1011.71
2018-12-04T06:49:13.530Z,1011.65
2018-12-04T06:50:13.522Z,1011.65
2018-12-04T06:51:13.517Z,1011.67
2018-12-04T06:52:13.503Z,1011.79
2018-12-04T06:53:13.499Z,1011.79
2018-12-04T06:54:13.490Z,1011.79
2018-12-04T06:55:13.478Z,1011.85
2018-12-04T06:56:13.471Z,1011.81
2018-12-04T06:57:13.464Z,1011.83
2018-12-04T06:58:13.455Z,1011.89
2018-12-04T06:59:13.454Z,1011.84
2018-12-04T07:00:13.448Z,1011.99
2018-12-04T07:01:13.425Z,1011.97
2018-12-04T07:02:13.422Z,1011.97
2018-12-04T07:03:13.406Z,1012.02
2018-12-04T07:04:13.403Z,1012.03
2018-12-04T07:05:13.393Z,1012.06
2018-12-04T07:06:13.384Z,1012.10
2018-12-04T07:07:13.375Z,1012.09
2018-12-04T07:08:13.371Z,1012.11
2018-12-04T07:09:13.358Z,1012.11
2018-12-04T07:10:13.348Z,1012.13
2018-12-04T07:11:13.342Z,1012.17
2018-12-04T07:12:13.330Z,1012.15
2018-12-04T07:13:13.323Z,1012.21
2018-12-04T07:14:13.310Z,1012.23
2018-12-04T07:15:13.301Z,1012.30
2018-12-04T07:16:13.290Z,1012.32
2018-12-04T07:17:13.286Z,1012.35
2018-12-04T07:18:13.283Z,1012.43
2018-12-04T07:19:13.269Z,1012.39
2018-12-04T07:20:13.259Z,1012.42
2018-12-04T07:21:13.245Z,1012.43
2018-12-04T07:22:13.237Z,1012.46
2018-12-04T07:23:13.228Z,1012.50
2018-12-04T07:24:13.219Z,1012.54
2018-12-04T07:25:13.215Z,1012.54
2018-12-04T07:26:13.208Z,1012.57
2018-12-04T07:27:13.192Z,1012.63
2018-12-04T07:28:13.184Z,1012.65
2018-12-04T07:29:13.182Z,1012.67
2018-12-04T07:30:13.176Z,1012.66
2018-12-04T07:31:13.161Z,1012.68
2018-12-04T07:32:13.152Z,1012.68
2018-12-04T07:33:13.140Z,1012.69
2018-12-04T07:34:13.130Z,1012.73
2018-12-04T07:35:13.121Z,1012.74
2018-12-04T07:36:13.114Z,1012.70
2018-12-04T07:37:13.108Z,1012.75
2018-12-04T07:38:13.111Z,1012.75
2018-12-04T07:39:13.141Z,1012.80
2018-12-04T07:40:13.083Z,1012.81
2018-12-04T07:41:13.076Z,1012.87
2018-12-04T07:42:13.060Z,1012.93
2018-12-04T07:43:13.057Z,1012.98
2018-12-04T07:44:13.047Z,1012.94
2018-12-04T07:45:13.034Z,1012.89
2018-12-04T07:46:13.025Z,1012.96
2018-12-04T07:47:13.016Z,1012.98
2018-12-04T07:48:13.009Z,1013.02
2018-12-04T07:49:13.002Z,1013.01
2018-12-04T07:50:12.997Z,1013.10
2018-12-04T07:51:12.985Z,1013.14
2018-12-04T07:52:12.976Z,1013.16
2018-12-04T07:53:12.966Z,1013.21
2018-12-04T07:54:12.954Z,1013.21
2018-12-04T07:55:12.945Z,1013.28
2018-12-04T07:56:12.937Z,1013.30
2018-12-04T07:57:12.934Z,1013.29
2018-12-04T07:58:12.925Z,1013.37
2018-12-04T07:59:12.911Z,1013.40
2018-12-04T08:00:12.906Z,1013.39
2018-12-04T08:01:12.906Z,1013.44
2018-12-04T08:02:12.890Z,1013.42
2018-12-04T08:03:12.881Z,1013.44
2018-12-04T08:04:12.875Z,1013.49
2018-12-04T08:05:12.859Z,1013.47
2018-12-04T08:06:12.850Z,1013.54
2018-12-04T08:07:12.843Z,1013.55
2018-12-04T08:08:12.833Z,1013.58
2018-12-04T08:09:12.830Z,1013.63
2018-12-04T08:10:12.821Z,1013.69
2018-12-04T08:11:12.811Z,1013.68
2018-12-04T08:12:12.803Z,1013.74
2018-12-04T08:13:12.790Z,1013.74
2018-12-04T08:14:12.782Z,1013.74
2018-12-04T08:15:12.778Z,1013.78
2018-12-04T08:16:12.768Z,1013.81
2018-12-04T08:17:12.757Z,1013.81
2018-12-04T08:18:12.749Z,1013.79
2018-12-04T08:19:12.738Z,1013.84
2018-12-04T08:20:12.731Z,1013.83
2018-12-04T08:21:12.728Z,1013.89
2018-12-04T08:22:12.729Z,1013.93
2018-12-04T08:23:12.711Z,1013.99
2018-12-04T08:24:12.710Z,1014.00
2018-12-04T08:25:12.690Z,1014.01
2018-12-04T08:26:12.680Z,1014.00
2018-12-04T08:27:12.672Z,1014.00
2018-12-04T08:28:12.663Z,1014.04
2018-12-04T08:29:12.660Z,1014.01
2018-12-04T08:30:12.651Z,1014.07
2018-12-04T08:31:12.638Z,1014.11
2018-12-04T08:32:12.630Z,1014.14
2018-12-04T08:33:12.626Z,1014.11
2018-12-04T08:34:12.619Z,1014.17
2018-12-04T08:35:12.610Z,1014.16
2018-12-04T08:36:12.605Z,1014.20
2018-12-04T08:37:12.589Z,1014.26
2018-12-04T08:38:12.582Z,1014.27
2018-12-04T08:39:13.220Z,1014.30
2018-12-04T08:40:12.566Z,1014.29
2018-12-04T08:41:12.566Z,1014.30
2018-12-04T08:42:12.556Z,1014.28
2018-12-04T08:43:12.545Z,1014.34
2018-12-04T08:44:12.538Z,1014.30
2018-12-04T08:45:12.527Z,1014.33
2018-12-04T08:46:12.519Z,1014.38
2018-12-04T08:47:12.514Z,1014.42
2018-12-04T08:48:12.507Z,1014.44
2018-12-04T08:49:12.495Z,1014.50
2018-12-04T08:50:12.487Z,1014.46
2018-12-04T08:51:12.479Z,1014.49
2018-12-04T08:52:12.471Z,1014.49
2018-12-04T08:53:12.470Z,1014.56
2018-12-04T08:54:12.460Z,1014.59
2018-12-04T08:55:12.454Z,1014.58
2018-12-04T08:56:12.446Z,1014.64
2018-12-04T08:57:12.433Z,1014.66
2018-12-04T08:58:12.426Z,1014.78
2018-12-04T08:59:12.416Z,1014.73
2018-12-04T09:00:12.409Z,1014.77
2018-12-04T09:01:12.406Z,1014.78
2018-12-04T09:02:12.398Z,1014.82
2018-12-04T09:03:12.387Z,1014.89
2018-12-04T09:04:12.383Z,1014.82
2018-12-04T09:05:12.456Z,1014.85
2018-12-04T09:06:12.376Z,1014.82
2018-12-04T09:07:12.361Z,1014.86
2018-12-04T09:08:12.386Z,1014.88
2018-12-04T09:09:12.342Z,1014.93
2018-12-04T09:10:12.335Z,1014.91
2018-12-04T09:11:12.327Z,1014.89
2018-12-04T09:12:12.321Z,1014.94
2018-12-04T09:13:12.318Z,1014.93
2018-12-04T09:14:12.310Z,1014.93
2018-12-04T09:15:12.304Z,1014.96
2018-12-04T09:16:12.297Z,1015.00
2018-12-04T09:17:12.285Z,1015.01
2018-12-04T09:18:12.283Z,1015.03
2018-12-04T09:19:12.331Z,1015.02
2018-12-04T09:20:12.311Z,1015.06
2018-12-04T09:21:12.267Z,1015.23
2018-12-04T09:22:12.324Z,1015.23
2018-12-04T09:23:12.246Z,1015.29
2018-12-04T09:24:12.304Z,1015.33
2018-12-04T09:25:12.254Z,1015.41
2018-12-04T09:26:12.225Z,1015.42
2018-12-04T09:27:12.301Z,1015.48
2018-12-04T09:28:12.313Z,1015.55
2018-12-04T09:29:12.242Z,1015.63
2018-12-04T09:30:12.217Z,1015.60
2018-12-04T09:31:12.184Z,1015.64
2018-12-04T09:32:12.180Z,1015.66
2018-12-04T09:33:12.178Z,1015.70
2018-12-04T09:34:12.172Z,1015.76
2018-12-04T09:35:12.161Z,1015.80
2018-12-04T09:36:12.156Z,1015.87
2018-12-04T09:37:12.157Z,1015.90
2018-12-04T09:38:12.153Z,1015.89
2018-12-04T09:39:12.147Z,1015.86
2018-12-04T09:40:12.148Z,1015.88
2018-12-04T09:41:12.136Z,1015.88
2018-12-04T09:42:12.132Z,1015.89
2018-12-04T09:43:12.130Z,1015.91
2018-12-04T09:44:12.127Z,1015.89
2018-12-04T09:45:12.131Z,1015.89
2018-12-04T09:46:12.129Z,1015.97
2018-12-04T09:47:12.127Z,1016.02
2018-12-04T09:48:12.124Z,1016.02
2018-12-04T09:49:12.118Z,1016.07
2018-12-04T09:50:12.117Z,1016.12
2018-12-04T09:51:12.123Z,1016.18
2018-12-04T09:52:12.121Z,1016.16
2018-12-04T09:53:12.115Z,1016.20
2018-12-04T09:54:12.116Z,1016.22
2018-12-04T09:55:12.114Z,1016.24
2018-12-04T09:56:12.114Z,1016.31
2018-12-04T09:57:12.120Z,1016.29
2018-12-04T09:58:12.121Z,1016.35
2018-12-04T09:59:12.159Z,1016.32
2018-12-04T10:00:12.121Z,1016.33
2018-12-04T10:01:12.118Z,1016.33
2018-12-04T10:02:12.120Z,1016.32
2018-12-04T10:03:12.119Z,1016.47
2018-12-04T10:04:12.126Z,1016.44
2018-12-04T10:05:12.130Z,1016.44
2018-12-04T10:06:12.129Z,1016.45
2018-12-04T10:07:12.125Z,1016.46
2018-12-04T10:08:12.126Z,1016.46
2018-12-04T10:09:12.134Z,1016.47
2018-12-04T10:10:12.151Z,1016.48
2018-12-04T10:11:12.135Z,1016.50
2018-12-04T10:12:12.185Z,1016.47
2018-12-04T10:13:12.138Z,1016.52
2018-12-04T10:14:12.139Z,1016.54
2018-12-04T10:15:12.139Z,1016.53
2018-12-04T10:16:12.140Z,1016.55
2018-12-04T10:17:12.148Z,1016.56
2018-12-04T10:18:12.149Z,1016.51
2018-12-04T10:19:12.161Z,1016.54
2018-12-04T10:20:12.153Z,1016.59
2018-12-04T10:21:12.150Z,1016.60
2018-12-04T10:22:12.152Z,1016.59
2018-12-04T10:23:12.160Z,1016.60
2018-12-04T10:24:12.161Z,1016.61
2018-12-04T10:25:12.159Z,1016.49
2018-12-04T10:26:12.203Z,1016.62
2018-12-04T10:27:12.168Z,1016.70
2018-12-04T10:28:12.165Z,1016.69
2018-12-04T10:29:12.172Z,1016.69
2018-12-04T10:30:12.177Z,1016.62
2018-12-04T10:31:12.180Z,1016.67
2018-12-04T10:32:12.179Z,1016.65
2018-12-04T10:33:12.177Z,1016.65
2018-12-04T10:34:12.180Z,1016.71
2018-12-04T10:35:12.181Z,1016.68
2018-12-04T10:36:12.183Z,1016.73
2018-12-04T10:37:12.190Z,1016.77
2018-12-04T10:38:12.192Z,1016.75
2018-12-04T10:39:12.190Z,1016.78
2018-12-04T10:40:12.192Z,1016.76
2018-12-04T10:41:12.199Z,1016.84
2018-12-04T10:42:12.201Z,1016.82
2018-12-04T10:43:12.204Z,1016.89
2018-12-04T10:44:12.208Z,1016.80
2018-12-04T10:45:12.205Z,1016.78
2018-12-04T10:46:12.210Z,1016.75
2018-12-04T10:47:12.209Z,1016.71
2018-12-04T10:48:12.212Z,1016.72
2018-12-04T10:49:12.222Z,1016.68
2018-12-04T10:50:12.223Z,1016.69
2018-12-04T10:51:12.223Z,1016.70
2018-12-04T10:52:12.224Z,1016.64
2018-12-04T10:53:12.222Z,1016.61
2018-12-04T10:54:12.223Z,1016.63
2018-12-04T10:55:12.240Z,1016.65
2018-12-04T10:56:12.231Z,1016.74
2018-12-04T10:57:12.226Z,1016.77
2018-12-04T10:58:12.226Z,1016.80
2018-12-04T10:59:12.225Z,1016.89
2018-12-04T11:00:12.227Z,1016.82
2018-12-04T11:01:12.231Z,1016.85
2018-12-04T11:02:12.231Z,1016.83
2018-12-04T11:03:12.230Z,1016.94
2018-12-04T11:04:12.231Z,1016.90
2018-12-04T11:05:12.224Z,1016.81
2018-12-04T11:06:12.224Z,1016.85
2018-12-04T11:07:12.222Z,1016.88
2018-12-04T11:08:12.221Z,1016.86
2018-12-04T11:09:12.225Z,1016.87
2018-12-04T11:10:12.224Z,1016.90
2018-12-04T11:11:12.218Z,1016.92
2018-12-04T11:12:12.499Z,1016.90
2018-12-04T11:13:12.220Z,1016.85
2018-12-04T11:14:12.221Z,1016.90
2018-12-04T11:15:12.219Z,1016.91
2018-12-04T11:16:12.219Z,1016.98
2018-12-04T11:17:12.211Z,1017.07
2018-12-04T11:18:12.209Z,1016.97
2018-12-04T11:19:12.207Z,1017.02
2018-12-04T11:20:12.209Z,1017.03
2018-12-04T11:21:12.209Z,1016.99
2018-12-04T11:22:12.211Z,1017.06
2018-12-04T11:23:12.207Z,1017.05
2018-12-04T11:24:12.202Z,1017.05
2018-12-04T11:25:12.196Z,1017.06
2018-12-04T11:26:12.195Z,1017.07
2018-12-04T11:27:12.196Z,1017.05
2018-12-04T11:28:12.195Z,1017.09
2018-12-04T11:29:12.188Z,1017.07
2018-12-04T11:30:12.186Z,1017.11
2018-12-04T11:31:12.183Z,1017.11
2018-12-04T11:32:12.189Z,1017.12
2018-12-04T11:33:12.184Z,1017.10
2018-12-04T11:34:12.180Z,1017.09
2018-12-04T11:35:12.178Z,1017.12
2018-12-04T11:36:12.178Z,1017.11
2018-12-04T11:37:12.167Z,1017.23
2018-12-04T11:38:12.164Z,1017.22
2018-12-04T11:39:12.165Z,1017.17
2018-12-04T11:40:12.159Z,1017.18
2018-12-04T11:41:12.159Z,1017.20
2018-12-04T11:42:12.157Z,1017.22
2018-12-04T11:43:12.149Z,1017.22
2018-12-04T11:44:12.144Z,1017.28
2018-12-04T11:45:12.145Z,1017.24
2018-12-04T11:46:12.143Z,1017.29
2018-12-04T11:47:12.139Z,1017.27
2018-12-04T11:48:12.136Z,1017.26
2018-12-04T11:49:12.126Z,1017.32
2018-12-04T11:50:12.124Z,1017.31
2018-12-04T11:51:12.121Z,1017.31
2018-12-04T11:52:12.116Z,1017.33
2018-12-04T11:53:12.117Z,1017.40
2018-12-04T11:54:12.113Z,1017.34
2018-12-04T11:55:12.108Z,1017.33
2018-12-04T11:56:12.105Z,1017.35
2018-12-04T11:57:12.098Z,1017.27
2018-12-04T11:58:12.094Z,1017.27
2018-12-04T11:59:12.097Z,1017.31
2018-12-04T12:00:12.091Z,1017.30
2018-12-04T12:01:12.082Z,1017.33
2018-12-04T12:02:12.080Z,1017.30
2018-12-04T12:03:12.075Z,1017.26
2018-12-04T12:04:12.071Z,1017.28
2018-12-04T12:05:12.072Z,1017.28